Time;durP1;ratioP1;P1;durP2;ratioP2;P2;SDS_P1;SDS_P2;PMS_P1;PMS_P2;Temp;Humidity;BMP_temperature;BMP_pressure;BME280_temperature;BME280_humidity;BME280_pressure;Samples;Min_cycle;Max_cycle;Signal;HPM_P1;HPM_P2
2023/01/05 00:03:32;;;;;;;;;;;;;;;5.04;92.14;98512.94;10424501;28;20520;-54
2023/01/05 00:08:31;;;;;;;176.02;107.78;;;;;;;4.92;92.65;98505.66;10436613;28;19943;-54
2023/01/05 00:24:06;;;;;;;248.57;151.20;;;;;;;4.54;93.77;98496.63;10435516;28;20056;-54
2023/01/05 00:29:06;;;;;;;216.10;127.00;;;;;;;4.47;93.63;98499.81;10443409;28;20044;-54
2023/01/05 00:34:04;;;;;;;167.60;103.82;;;;;;;4.44;93.83;98500.56;10430247;28;20124;-53
2023/01/05 00:39:03;;;;;;;149.65;86.05;;;;;;;4.42;94.07;98501.34;10421842;28;20033;-53
2023/01/05 00:44:02;;;;;;;135.23;78.45;;;;;;;4.34;94.76;98488.25;10433217;28;20505;-54
2023/01/05 00:49:01;;;;;;;131.50;74.53;;;;;;;4.32;95.16;98483.88;10416099;28;20415;-54
2023/01/05 00:54:00;;;;;;;132.25;74.97;;;;;;;4.34;95.02;98488.25;10432007;28;20040;-53
2023/01/05 00:58:59;;;;;;;146.95;84.13;;;;;;;4.30;94.96;98486.38;10424412;28;20397;-53
2023/01/05 01:03:58;;;;;;;167.57;92.75;;;;;;;4.19;95.09;98473.13;10424900;28;20033;-53
2023/01/05 01:08:58;;;;;;;163.25;93.53;;;;;;;4.16;94.96;98478.16;10426845;28;20144;-53
2023/01/05 01:13:57;;;;;;;161.35;89.82;;;;;;;4.10;94.79;98474.50;10424447;28;20087;-53
2023/01/05 01:18:56;;;;;;;191.98;109.53;;;;;;;3.98;94.93;98467.22;10423208;28;20361;-53
2023/01/05 01:23:55;;;;;;;;;;;;;;;3.79;95.50;98456.28;10440831;28;20060;-54
2023/01/05 01:28:54;;;;;;;187.77;97.55;;;;;;;3.76;95.91;98458.75;10408113;28;19916;-54
2023/01/05 01:33:52;;;;;;;235.63;84.78;;;;;;;3.72;96.35;98454.31;10423448;28;20432;-54
2023/01/05 01:38:51;;;;;;;355.27;86.15;;;;;;;3.75;96.57;98454.44;10433014;28;20032;-54
2023/01/05 01:43:55;;;;;;;301.15;76.55;;;;;;;3.75;97.00;98438.13;10432591;28;20047;-54
2023/01/05 01:49:07;;;;;;;292.70;78.10;;;;;;;3.85;97.35;98429.97;10418106;28;20166;-54
2023/01/05 01:54:11;;;;;;;254.30;79.82;;;;;;;3.90;97.59;98418.19;10416703;28;20083;-54
2023/01/05 01:59:10;;;;;;;229.40;76.15;;;;;;;3.91;97.53;98408.78;10431187;28;20064;-54
2023/01/05 02:04:10;;;;;;;343.48;87.47;;;;;;;3.95;97.79;98395.22;10428833;28;20068;-54
2023/01/05 02:09:09;;;;;;;492.13;110.30;;;;;;;3.99;97.84;98397.09;10421926;28;20067;-54
2023/01/05 02:14:21;;;;;;;573.28;114.68;;;;;;;4.01;97.59;98390.28;10407226;28;20029;-53
2023/01/05 02:19:22;;;;;;;304.17;89.38;;;;;;;4.00;98.10;98380.84;10431958;28;20087;-54
2023/01/05 02:24:24;;;;;;;726.08;126.93;;;;;;;4.01;98.35;98383.50;10414188;28;20063;-53
2023/01/05 02:29:42;;;;;;;414.17;99.03;;;;;;;4.01;98.58;98373.22;10414754;28;20068;-54
2023/01/05 02:35:04;;;;;;;405.40;96.57;;;;;;;3.86;99.01;98370.09;10410821;28;20171;-54
2023/01/05 02:40:11;;;;;;;426.77;97.85;;;;;;;3.80;99.42;98360.50;10410860;28;20072;-54
2023/01/05 02:45:10;;;;;;;490.15;90.68;;;;;;;3.71;99.54;98360.16;10413760;28;20516;-53
2023/01/05 02:50:09;;;;;;;387.20;84.05;;;;;;;3.66;99.18;98351.44;10413228;28;20064;-54
2023/01/05 02:55:13;;;;;;;465.13;101.97;;;;;;;3.57;99.52;98343.41;10410771;28;20024;-54
2023/01/05 03:00:37;;;;;;;444.58;101.60;;;;;;;3.31;99.11;98327.94;10414037;28;20060;-54
2023/01/05 03:05:51;;;;;;;203.23;69.28;;;;;;;2.87;98.86;98334.81;10412995;28;20052;-54
2023/01/05 03:16:32;;;;;;;178.10;63.45;;;;;;;2.23;99.10;98322.00;10410706;28;20060;-55
2023/01/05 03:37:46;;;;;;;157.13;62.45;;;;;;;2.13;100.00;98279.78;10451608;28;20066;-54
2023/01/05 03:42:46;;;;;;;188.93;66.47;;;;;;;2.11;100.00;98272.06;10453944;28;20076;-54
2023/01/05 03:47:45;;;;;;;219.50;89.78;;;;;;;2.16;100.00;98272.22;10452578;28;20075;-52
2023/01/05 03:52:44;;;;;;;183.65;69.55;;;;;;;2.11;100.00;98281.41;10451826;28;20020;-53
2023/01/05 03:57:43;;;;;;;226.75;71.35;;;;;;;2.21;100.00;98283.56;10449853;28;20106;-53
2023/01/05 04:02:42;;;;;;;257.42;74.13;;;;;;;2.28;100.00;98271.88;10451995;28;20541;-53
2023/01/05 04:07:41;;;;;;;280.75;77.30;;;;;;;2.27;100.00;98277.78;10452894;28;20542;-53
2023/01/05 04:12:40;;;;;;;279.42;71.82;;;;;;;2.37;100.00;98262.88;10451611;28;20024;-55
2023/01/05 04:17:39;;;;;;;581.30;96.90;;;;;;;2.42;100.00;98257.94;10450139;28;20051;-54
2023/01/05 04:22:38;;;;;;;176.88;58.42;;;;;;;2.31;100.00;98254.06;10449338;28;20027;-54
2023/01/05 04:27:37;;;;;;;230.38;56.85;;;;;;;2.24;100.00;98259.75;10451690;28;20066;-54
2023/01/05 04:32:36;;;;;;;172.85;53.67;;;;;;;1.90;100.00;98269.50;10450428;28;20017;-52
2023/01/05 04:37:35;;;;;;;232.88;72.57;;;;;;;1.61;100.00;98275.94;10451114;28;20022;-53
2023/01/05 04:42:34;;;;;;;135.73;47.78;;;;;;;1.43;100.00;98282.84;10417348;28;20028;-53
2023/01/05 04:47:33;;;;;;;135.38;46.45;;;;;;;1.43;100.00;98288.81;10408979;28;20044;-53
2023/01/05 04:52:31;;;;;;;96.82;41.38;;;;;;;1.50;100.00;98284.84;10408552;28;20755;-54
2023/01/05 04:57:30;;;;;;;89.97;38.50;;;;;;;1.50;100.00;98272.06;10408805;28;20484;-55
2023/01/05 05:02:30;;;;;;;232.02;51.20;;;;;;;1.50;100.00;98284.84;10405537;28;20111;-54
2023/01/05 05:07:29;;;;;;;166.80;51.25;;;;;;;1.41;100.00;98280.22;10408438;28;20345;-54
2023/01/05 05:12:28;;;;;;;116.45;47.17;;;;;;;1.36;100.00;98265.47;10409602;28;20489;-54
2023/01/05 05:17:27;;;;;;;226.75;59.20;;;;;;;1.28;100.00;98268.56;10408336;28;20107;-55
2023/01/05 05:22:27;;;;;;;324.48;68.72;;;;;;;1.29;100.00;98280.56;10429393;28;20051;-55
2023/01/05 05:27:26;;;;;;;170.48;51.90;;;;;;;1.19;100.00;98274.97;10449185;28;20102;-55
2023/01/05 05:32:24;;;;;;;162.55;62.15;;;;;;;1.25;100.00;98277.81;10448959;28;20035;-54
2023/01/05 05:37:23;;;;;;;227.30;71.32;;;;;;;1.28;100.00;98255.78;10448851;28;20417;-54
2023/01/05 05:42:22;;;;;;;198.60;65.45;;;;;;;1.31;100.00;98243.13;10445482;28;20033;-54
2023/01/05 05:47:21;;;;;;;204.48;65.28;;;;;;;1.18;100.00;98225.53;10405284;28;20115;-55
2023/01/05 05:52:20;;;;;;;285.67;79.25;;;;;;;1.08;100.00;98223.38;10425753;28;20140;-54
2023/01/05 05:57:19;;;;;;;326.75;94.13;;;;;;;0.90;100.00;98209.00;10435943;28;20028;-54
2023/01/05 06:02:18;;;;;;;208.55;88.00;;;;;;;0.71;100.00;98198.78;10426136;28;20967;-55
2023/01/05 06:07:17;;;;;;;181.90;73.60;;;;;;;0.70;100.00;98202.13;10432869;28;20071;-54
2023/01/05 06:12:16;;;;;;;208.93;75.20;;;;;;;0.62;100.00;98195.81;10452742;28;20509;-55
2023/01/05 06:17:15;;;;;;;234.70;101.53;;;;;;;0.46;100.00;98184.00;10454774;28;20399;-54
2023/01/05 06:22:14;;;;;;;214.25;103.47;;;;;;;0.46;100.00;98199.34;10455573;28;20063;-53
2023/01/05 06:27:13;;;;;;;249.07;114.50;;;;;;;0.43;100.00;98200.06;10425291;28;20032;-54
2023/01/05 06:32:12;;;;;;;200.15;104.20;;;;;;;0.51;100.00;98208.06;10411708;28;20401;-55
2023/01/05 06:37:11;;;;;;;194.70;108.53;;;;;;;0.60;100.00;98216.16;10447102;28;20035;-55
2023/01/05 06:42:10;;;;;;;196.77;110.32;;;;;;;0.73;100.00;98214.16;10456012;28;20034;-55
2023/01/05 06:47:09;;;;;;;219.25;120.50;;;;;;;0.86;100.00;98219.00;10471406;28;20069;-55
2023/01/05 06:52:08;;;;;;;197.73;109.15;;;;;;;0.92;100.00;98200.50;10442289;28;20032;-55
2023/01/05 06:57:07;;;;;;;250.63;135.10;;;;;;;1.11;100.00;98197.97;10455087;28;20036;-55
2023/01/05 07:02:13;;;;;;;205.25;116.65;;;;;;;1.24;100.00;98195.09;10453899;28;20079;-55
2023/01/05 07:07:13;;;;;;;338.58;193.73;;;;;;;1.21;100.00;98183.91;10453732;28;20494;-55
2023/01/05 07:12:12;;;;;;;349.83;205.55;;;;;;;1.32;100.00;98175.88;10427092;28;20145;-54
2023/01/05 07:17:13;;;;;;;315.98;189.90;;;;;;;1.43;100.00;98165.19;10452395;28;20123;-55
2023/01/05 07:22:12;;;;;;;270.88;164.10;;;;;;;1.68;100.00;98172.19;10452327;28;20055;-54
2023/01/05 07:27:11;;;;;;;258.23;152.95;;;;;;;1.95;100.00;98162.22;10430944;28;20028;-54
2023/01/05 07:32:10;;;;;;;214.43;127.55;;;;;;;2.24;100.00;98149.66;10409046;28;20073;-55
2023/01/05 07:37:09;;;;;;;206.25;122.70;;;;;;;2.52;100.00;98126.81;10422956;28;20020;-56
2023/01/05 07:42:08;;;;;;;157.75;93.28;;;;;;;2.80;100.00;98144.06;10433154;28;20075;-54
2023/01/05 07:47:07;;;;;;;152.82;85.88;;;;;;;3.08;100.00;98116.81;10430820;28;20027;-53
2023/01/05 07:52:06;;;;;;;137.90;79.53;;;;;;;3.36;100.00;98130.59;10431563;28;20467;-53
2023/01/05 07:57:05;;;;;;;170.38;103.15;;;;;;;3.68;100.00;98139.31;10430215;28;20546;-54
2023/01/05 08:02:04;;;;;;;223.13;127.53;;;;;;;4.08;100.00;98135.47;10441159;28;20369;-54
2023/01/05 08:07:08;;;;;;;172.77;106.20;;;;;;;4.40;100.00;98118.41;10435780;28;20068;-53
2023/01/05 08:12:07;;;;;;;159.05;98.10;;;;;;;4.76;100.00;98115.16;10429402;28;20074;-54
2023/01/05 08:17:08;;;;;;;159.13;99.72;;;;;;;5.13;100.00;98098.16;10433197;28;20108;-54
2023/01/05 08:22:06;;;;;;;174.57;109.25;;;;;;;5.42;100.00;98096.34;10436089;28;20143;-54
2023/01/05 08:27:05;;;;;;;101.70;54.78;;;;;;;5.57;100.00;98100.13;10436586;28;20032;-54
2023/01/05 08:32:04;;;;;;;80.90;46.78;;;;;;;5.85;100.00;98102.50;10431484;28;20447;-54
2023/01/05 08:37:03;;;;;;;86.72;50.85;;;;;;;6.18;100.00;98096.38;10425355;28;20570;-54
2023/01/05 08:42:02;;;;;;;91.00;55.70;;;;;;;6.54;100.00;98087.69;10434786;28;20036;-54
2023/01/05 08:47:01;;;;;;;91.13;57.45;;;;;;;6.81;99.70;98077.91;10425806;28;20119;-54
2023/01/05 08:52:00;;;;;;;86.88;54.72;;;;;;;7.06;99.08;98075.78;10435425;28;20465;-54
2023/01/05 08:57:00;;;;;;;82.18;51.30;;;;;;;7.38;97.75;98067.72;10431920;28;20505;-53
2023/01/05 09:01:58;;;;;;;75.05;45.90;;;;;;;7.70;97.18;98049.34;10434231;28;20078;-54
2023/01/05 09:06:57;;;;;;;92.00;58.38;;;;;;;8.07;95.41;98025.75;10435392;28;20115;-54
2023/01/05 09:11:56;;;;;;;80.70;45.83;;;;;;;8.50;94.19;98009.88;10432457;28;20044;-54
2023/01/05 09:16:55;;;;;;;82.10;46.22;;;;;;;8.96;91.27;97999.16;10438177;28;20036;-54
2023/01/05 09:21:54;;;;;;;76.30;43.90;;;;;;;9.34;88.18;97987.41;10439660;28;20503;-54
2023/01/05 09:26:53;;;;;;;22.50;14.23;;;;;;;9.66;82.29;97975.56;10430680;28;20114;-54
2023/01/05 09:31:52;;;;;;;104.35;61.05;;;;;;;9.99;77.08;97967.09;10434684;28;20044;-54
2023/01/05 09:36:51;;;;;;;48.00;27.90;;;;;;;10.36;76.27;97951.69;10429569;28;20407;-53
2023/01/05 09:41:54;;;;;;;31.67;18.63;;;;;;;10.64;74.88;97957.81;10438179;28;20119;-55
2023/01/05 09:46:56;;;;;;;52.75;29.95;;;;;;;10.89;69.94;97944.88;10438502;28;20534;-54
2023/01/05 09:52:01;;;;;;;18.48;13.13;;;;;;;11.12;67.59;97943.16;10429960;28;20115;-54
2023/01/05 09:57:02;;;;;;;16.98;11.07;;;;;;;11.37;65.80;97927.56;10432711;28;20090;-56
2023/01/05 10:02:38;;;;;;;15.52;12.10;;;;;;;11.56;63.12;97915.41;10423716;28;20114;-55
2023/01/05 10:07:49;;;;;;;39.80;28.95;;;;;;;11.71;60.94;97901.47;10453902;28;20076;-54
2023/01/05 10:13:03;;;;;;;26.40;19.60;;;;;;;11.63;57.46;97904.13;10432247;28;20470;-54
2023/01/05 10:18:10;;;;;;;25.45;18.98;;;;;;;11.60;56.08;97892.00;10419697;28;20083;-55
2023/01/05 10:23:12;;;;;;;30.40;19.88;;;;;;;11.77;55.67;97896.28;10439667;28;20820;-54
2023/01/05 10:28:25;;;;;;;58.42;43.25;;;;;;;11.73;54.98;97886.75;10439313;28;20070;-54
2023/01/05 10:33:42;;;;;;;21.30;15.25;;;;;;;11.78;53.33;97885.00;10432743;28;20139;-54
2023/01/05 10:38:56;;;;;;;54.90;48.65;;;;;;;11.88;53.19;97869.38;10439995;28;20107;-54
2023/01/05 10:44:23;;;;;;;20.75;13.45;;;;;;;12.08;54.68;97855.38;10438468;28;20063;-54
2023/01/05 10:49:30;;;;;;;20.50;12.77;;;;;;;12.26;54.73;97855.28;10413836;28;20052;-55
2023/01/05 10:54:36;;;;;;;13.35;8.45;;;;;;;12.41;54.88;97851.75;10415996;28;20060;-55
2023/01/05 10:59:53;;;;;;;13.45;9.68;;;;;;;12.63;53.45;97838.59;10432524;28;20173;-54
2023/01/05 11:04:59;;;;;;;13.85;10.52;;;;;;;12.78;51.97;97835.84;10429404;28;20070;-55
2023/01/05 11:09:58;;;;;;;12.15;8.45;;;;;;;13.00;53.02;97831.31;10439277;28;20459;-55
2023/01/05 11:14:59;;;;;;;16.08;10.50;;;;;;;13.18;51.97;97824.19;10437257;28;20144;-55
2023/01/05 11:19:58;;;;;;;16.92;10.77;;;;;;;13.30;49.99;97818.84;10437251;28;20139;-55
2023/01/05 11:25:22;;;;;;;18.75;11.95;;;;;;;13.36;50.22;97808.38;10436477;28;20543;-54
2023/01/05 11:30:23;;;;;;;72.72;44.03;;;;;;;13.52;49.67;97807.31;10443316;28;20119;-55
2023/01/05 11:35:31;;;;;;;43.28;29.00;;;;;;;13.74;49.85;97805.31;10425311;28;20071;-57
2023/01/05 11:40:33;;;;;;;28.70;20.05;;;;;;;13.78;48.17;97795.72;10448035;28;20068;-55
2023/01/05 11:45:39;;;;;;;26.15;16.25;;;;;;;13.73;47.44;97803.59;10421372;28;20123;-55
2023/01/05 11:50:46;;;;;;;45.60;30.10;;;;;;;13.91;47.05;97789.47;10435206;28;20110;-56
2023/01/05 11:55:45;;;;;;;24.30;15.75;;;;;;;14.02;46.13;97801.47;10424808;28;20123;-56
2023/01/05 12:00:50;;;;;;;;;;;;;;;13.86;45.77;97793.84;10412105;28;20116;-56
2023/01/05 12:05:53;;;;;;;34.95;21.67;;;;;;;13.56;46.52;97737.75;10414324;28;19959;-56
2023/01/05 12:11:16;;;;;;;39.80;24.90;;;;;;;13.71;46.71;97778.44;10410302;28;20067;-55
2023/01/05 12:16:33;;;;;;;40.47;22.90;;;;;;;13.40;46.52;97754.44;10441977;28;20491;-55
2023/01/05 12:21:38;;;;;;;53.10;30.02;;;;;;;13.21;46.65;97740.78;10453038;28;20479;-56
2023/01/05 12:26:39;;;;;;;25.58;13.35;;;;;;;12.95;46.76;97734.09;10443129;28;20120;-57
2023/01/05 12:32:12;;;;;;;36.65;21.17;;;;;;;12.67;46.73;97729.22;10444776;28;20122;-55
2023/01/05 12:37:14;;;;;;;40.33;23.95;;;;;;;12.45;47.09;97741.53;10448654;28;20146;-55
2023/01/05 12:42:28;;;;;;;208.38;103.63;;;;;;;12.35;47.32;97746.84;10435096;28;20169;-55
2023/01/05 12:47:42;;;;;;;126.72;63.55;;;;;;;12.38;48.04;97752.88;10434797;28;20059;-55
2023/01/05 12:52:46;;;;;;;52.60;37.50;;;;;;;12.40;47.89;97747.69;10419830;28;20540;-55
2023/01/05 12:57:51;;;;;;;19.70;14.15;;;;;;;12.46;48.13;97739.78;10432034;28;20064;-55
2023/01/05 13:03:08;;;;;;;13.77;8.27;;;;;;;12.46;48.06;97734.59;10421309;28;20594;-56
2023/01/05 13:08:14;;;;;;;14.77;8.95;;;;;;;12.52;48.18;97722.38;10443162;28;20123;-55
2023/01/05 13:13:18;;;;;;;13.27;9.23;;;;;;;12.63;48.36;97730.09;10438697;28;20079;-54
2023/01/05 13:18:19;;;;;;;15.32;10.20;;;;;;;12.70;48.30;97723.97;10448258;28;20076;-55
2023/01/05 13:23:31;;;;;;;13.05;8.40;;;;;;;12.68;47.54;97723.09;10422751;28;20063;-57
2023/01/05 13:28:30;;;;;;;15.63;9.52;;;;;;;12.73;47.42;97721.31;10427211;28;20126;-55
2023/01/05 13:33:48;;;;;;;17.40;10.38;;;;;;;12.79;47.52;97720.41;10433263;28;20107;-54
2023/01/05 13:38:52;;;;;;;14.13;10.10;;;;;;;12.81;47.70;97702.16;10443419;28;20071;-55
2023/01/05 13:44:12;;;;;;;14.88;8.20;;;;;;;12.78;47.39;97716.06;10428910;28;20058;-55
2023/01/05 13:49:17;;;;;;;16.13;8.23;;;;;;;12.73;47.35;97713.50;10422625;28;20060;-55
2023/01/05 13:54:38;;;;;;;12.27;7.53;;;;;;;12.76;47.31;97709.16;10433994;28;20559;-55
2023/01/05 13:59:37;;;;;;;9.27;6.70;;;;;;;12.64;47.19;97708.38;10429434;28;20067;-54
2023/01/05 14:04:44;;;;;;;11.27;6.70;;;;;;;12.56;47.13;97712.81;10441704;28;20123;-55
2023/01/05 14:09:56;;;;;;;10.32;6.55;;;;;;;12.47;47.44;97699.91;10432486;28;20121;-55
2023/01/05 14:15:08;;;;;;;22.52;15.60;;;;;;;12.37;47.65;97698.22;10430014;28;20078;-55
2023/01/05 14:20:35;;;;;;;14.63;10.48;;;;;;;12.18;47.77;97697.50;10436757;28;20064;-54
2023/01/05 14:25:37;;;;;;;15.32;11.90;;;;;;;12.00;48.06;97685.53;10439452;28;20060;-54
2023/01/05 14:30:36;;;;;;;13.57;9.43;;;;;;;11.88;47.95;97679.53;10440561;28;20055;-54
2023/01/05 14:35:36;;;;;;;19.65;11.13;;;;;;;11.73;47.72;97674.44;10442175;28;20442;-54
2023/01/05 14:40:42;;;;;;;12.90;7.10;;;;;;;11.62;48.10;97682.31;10432445;28;20148;-54
2023/01/05 14:45:54;;;;;;;12.95;7.55;;;;;;;11.51;48.33;97680.66;10429038;28;20748;-55
2023/01/05 14:51:07;;;;;;;18.58;12.35;;;;;;;11.39;47.70;97679.84;10429292;28;20147;-55
2023/01/05 14:56:06;;;;;;;21.88;12.18;;;;;;;11.35;47.21;97685.06;10425145;28;20451;-55
2023/01/05 15:01:17;;;;;;;16.98;10.63;;;;;;;11.24;47.83;97679.94;10433865;28;20748;-55
2023/01/05 15:06:22;;;;;;;18.67;11.18;;;;;;;11.11;47.98;97686.06;10441114;28;20107;-55
2023/01/05 15:11:53;;;;;;;22.25;14.75;;;;;;;10.90;48.43;97685.28;10443408;28;20140;-56
2023/01/05 15:17:21;;;;;;;15.23;8.90;;;;;;;10.74;49.25;97688.75;10445081;28;20116;-55
2023/01/05 15:22:20;;;;;;;26.50;18.55;;;;;;;10.58;49.00;97685.31;10440317;28;20171;-56
2023/01/05 15:27:48;;;;;;;318.40;226.57;;;;;;;10.47;49.46;97689.66;10438760;28;20028;-56
2023/01/05 15:32:56;;;;;;;32.42;21.77;;;;;;;10.41;50.37;97693.16;10434133;28;20064;-56
2023/01/05 15:37:55;;;;;;;36.67;24.25;;;;;;;10.34;49.78;97697.47;10435429;28;20956;-56
2023/01/05 15:42:58;;;;;;;26.75;17.80;;;;;;;10.44;49.35;97681.91;10443039;28;21245;-55
2023/01/05 15:48:05;;;;;;;14.75;8.48;;;;;;;10.38;49.96;97675.00;10429813;28;20056;-55
2023/01/05 15:53:04;;;;;;;18.45;12.52;;;;;;;10.27;50.16;97677.59;10431524;28;20494;-56
2023/01/05 15:58:13;;;;;;;25.00;15.10;;;;;;;10.17;50.25;97681.94;10415945;28;20072;-55
2023/01/05 16:03:19;;;;;;;;;;;;;;;10.17;50.42;97673.28;10420609;28;20067;-55
2023/01/05 16:08:18;;;;;;;48.22;32.65;;;;;;;9.98;50.87;97690.59;10411753;28;19975;-55
2023/01/05 16:13:27;;;;;;;51.30;34.42;;;;;;;9.64;51.41;97676.72;10442619;28;20048;-54
2023/01/05 16:18:33;;;;;;;44.10;28.37;;;;;;;9.50;51.21;97676.69;10452761;28;20502;-55
2023/01/05 16:23:58;;;;;;;37.88;20.00;;;;;;;9.48;50.69;97668.91;10443645;28;20052;-55
2023/01/05 16:28:57;;;;;;;21.52;14.38;;;;;;;9.50;49.83;97682.72;10434878;28;20701;-55
2023/01/05 16:34:01;;;;;;;17.08;12.85;;;;;;;9.54;49.83;97678.44;10445563;28;20103;-55
2023/01/05 16:39:21;;;;;;;14.77;10.50;;;;;;;9.59;49.30;97674.13;10425566;28;20078;-55
2023/01/05 16:44:20;;;;;;;39.58;21.77;;;;;;;9.70;49.57;97684.47;10450947;28;20071;-55
2023/01/05 16:49:35;;;;;;;56.05;29.30;;;;;;;9.78;49.49;97686.22;10432087;28;20042;-55
2023/01/05 16:54:43;;;;;;;15.43;9.30;;;;;;;9.80;49.77;97699.19;10426921;28;20570;-55
2023/01/05 16:59:48;;;;;;;23.45;11.98;;;;;;;9.75;49.69;97694.00;10431266;28;20140;-55
2023/01/05 17:04:47;;;;;;;36.33;18.50;;;;;;;9.70;49.75;97687.06;10433466;28;20058;-55
2023/01/05 17:09:46;;;;;;;65.93;30.92;;;;;;;9.60;50.14;97693.13;10427608;28;20058;-55
2023/01/05 17:14:45;;;;;;;89.10;37.45;;;;;;;9.54;50.86;97696.56;10434371;28;20080;-55
2023/01/05 17:19:45;;;;;;;39.22;20.67;;;;;;;9.39;51.64;97684.44;10452392;28;20074;-55
2023/01/05 17:24:44;;;;;;;28.38;17.17;;;;;;;9.53;51.21;97685.31;10426581;28;20154;-55
2023/01/05 17:29:43;;;;;;;58.22;37.30;;;;;;;9.47;51.13;97697.41;10435836;28;20064;-55
2023/01/05 17:34:42;;;;;;;54.45;35.25;;;;;;;9.30;51.46;97706.00;10424870;28;20119;-55
2023/01/05 17:39:41;;;;;;;66.28;38.80;;;;;;;9.10;51.11;97702.44;10440651;28;20082;-55
2023/01/05 17:44:39;;;;;;;79.93;49.63;;;;;;;8.97;51.46;97691.16;10433670;28;20062;-54
2023/01/05 17:49:38;;;;;;;61.70;39.35;;;;;;;8.79;52.44;97712.66;10438590;28;20111;-54
2023/01/05 17:54:39;;;;;;;53.00;33.55;;;;;;;8.36;53.60;97720.13;10443288;28;20048;-54
2023/01/05 17:59:38;;;;;;;50.05;31.70;;;;;;;8.20;53.75;97708.84;10432016;28;20463;-53
2023/01/05 18:04:37;;;;;;;45.15;30.42;;;;;;;8.11;54.23;97710.44;10427337;28;20824;-57
2023/01/05 18:09:36;;;;;;;54.88;37.03;;;;;;;7.90;54.64;97706.84;10466743;28;20046;-54
2023/01/05 18:14:35;;;;;;;49.03;33.38;;;;;;;7.50;55.21;97675.50;10456932;28;20059;-54
2023/01/05 18:19:34;;;;;;;53.15;31.92;;;;;;;7.71;54.90;97707.50;10462871;27;20075;-54
2023/01/05 18:24:33;;;;;;;33.38;21.25;;;;;;;7.84;54.69;97717.13;10431258;28;20035;-54
2023/01/05 18:29:33;;;;;;;37.22;27.38;;;;;;;7.75;55.01;97694.66;10439095;28;20095;-54
2023/01/05 18:34:33;;;;;;;29.92;20.92;;;;;;;7.96;54.04;97732.72;10451782;28;20075;-54
2023/01/05 18:39:32;;;;;;;65.18;43.53;;;;;;;8.10;54.81;97748.34;10469188;28;20059;-53
2023/01/05 18:44:31;;;;;;;73.22;47.38;;;;;;;7.88;55.29;97745.59;10434571;28;20031;-54
2023/01/05 18:49:30;;;;;;;62.97;41.30;;;;;;;7.65;55.59;97749.66;10455868;28;20127;-54
2023/01/05 18:54:29;;;;;;;77.28;49.92;;;;;;;7.44;56.33;97747.72;10436975;28;20020;-54
2023/01/05 18:59:28;;;;;;;103.72;60.92;;;;;;;7.27;56.70;97747.50;10435030;28;20542;-54
2023/01/05 19:04:27;;;;;;;90.43;55.97;;;;;;;7.16;56.79;97762.84;10431167;28;20028;-54
2023/01/05 19:09:26;;;;;;;72.50;46.33;;;;;;;7.10;57.84;97773.09;10453053;28;20230;-54
2023/01/05 19:14:25;;;;;;;89.28;54.55;;;;;;;7.04;58.43;97796.22;10436562;28;20020;-54
2023/01/05 19:19:24;;;;;;;103.32;65.18;;;;;;;6.86;58.90;97794.25;10425960;28;20123;-54
2023/01/05 19:24:25;;;;;;;90.53;55.08;;;;;;;6.66;60.17;97775.91;10434684;28;20261;-54
2023/01/05 19:29:24;;;;;;;89.22;54.83;;;;;;;6.56;60.28;97784.34;10446407;28;20585;-53
2023/01/05 19:34:23;;;;;;;80.88;48.33;;;;;;;6.39;61.45;97774.63;10444956;28;20511;-54
2023/01/05 19:39:22;;;;;;;52.08;30.42;;;;;;;6.30;61.65;97776.19;10428536;28;20612;-54
2023/01/05 19:44:21;;;;;;;62.33;40.00;;;;;;;6.18;62.09;97772.56;10426712;28;20021;-53
2023/01/05 19:49:24;;;;;;;;;;;;;;;5.96;64.40;97798.81;10438250;28;20068;-54
2023/01/05 19:54:27;;;;;;;80.43;50.72;;;;;;;5.75;65.16;97807.03;10426001;28;19951;-54
2023/01/05 19:59:31;;;;;;;68.50;45.55;;;;;;;5.54;65.64;97816.06;10442246;28;20538;-54
2023/01/05 20:04:31;;;;;;;105.60;69.10;;;;;;;5.38;66.12;97814.03;10448099;28;20056;-54
2023/01/05 20:09:30;;;;;;;57.10;38.47;;;;;;;5.23;67.14;97835.16;10449794;28;20502;-55
2023/01/05 20:14:33;;;;;;;87.18;55.97;;;;;;;5.25;66.89;97825.78;10446301;28;20064;-54
2023/01/05 20:19:33;;;;;;;92.35;54.65;;;;;;;5.19;67.68;97820.50;10407693;28;20471;-54
2023/01/05 20:24:35;;;;;;;90.22;59.38;;;;;;;5.15;67.50;97812.69;10442287;28;20055;-55
2023/01/05 20:29:34;;;;;;;73.70;47.88;;;;;;;5.16;67.64;97824.69;10414500;28;20099;-54
2023/01/05 20:34:38;;;;;;;72.20;45.92;;;;;;;5.18;67.33;97821.34;10419661;28;20053;-54
2023/01/05 20:39:39;;;;;;;77.13;46.30;;;;;;;5.12;67.79;97819.50;10419481;28;20091;-54
2023/01/05 20:44:40;;;;;;;73.82;46.38;;;;;;;5.18;67.90;97831.63;10421965;28;20474;-54
2023/01/05 20:49:40;;;;;;;82.20;48.78;;;;;;;5.12;68.14;97840.06;10442546;28;20048;-55
2023/01/05 20:54:40;;;;;;;98.95;59.08;;;;;;;5.12;68.30;97846.91;10447940;28;20056;-54
2023/01/05 20:59:39;;;;;;;119.47;67.40;;;;;;;5.04;69.02;97821.03;10448513;28;20071;-55
2023/01/05 21:04:38;;;;;;;;;;;;;;;5.03;68.94;97839.88;10430678;28;20934;-54
2023/01/05 21:09:40;;;;;;;90.47;56.63;;;;;;;4.91;69.57;97842.13;10428853;28;20547;-54
2023/01/05 21:14:39;;;;;;;97.10;60.88;;;;;;;4.65;69.84;97857.81;10445163;28;20123;-54
2023/01/05 21:19:38;;;;;;;89.50;56.47;;;;;;;4.52;70.47;97854.91;10440385;28;20086;-54
2023/01/05 21:24:37;;;;;;;88.32;52.15;;;;;;;4.40;71.03;97870.91;10426631;28;20111;-54
2023/01/05 21:29:35;;;;;;;93.45;57.45;;;;;;;4.25;71.39;97879.97;10428284;28;20123;-54
2023/01/05 21:34:34;;;;;;;78.55;49.55;;;;;;;4.17;71.69;97863.47;10435338;28;20135;-54
2023/01/05 21:39:33;;;;;;;79.03;48.13;;;;;;;4.12;72.65;97872.75;10437541;28;20119;-55
2023/01/05 21:44:33;;;;;;;72.43;43.08;;;;;;;4.10;72.77;97873.53;10428916;28;20032;-54
2023/01/05 21:49:33;;;;;;;109.38;63.10;;;;;;;4.09;72.88;97900.94;10433213;28;20063;-54
